Time;durP1;ratioP1;P1;durP2;ratioP2;P2;SDS_P1;SDS_P2;PMS_P1;PMS_P2;Temp;Humidity;BMP_temperature;BMP_pressure;BME280_temperature;BME280_humidity;BME280_pressure;Samples;Min_cycle;Max_cycle;Signal;HPM_P1;HPM_P2
2024/04/20 00:01:46;;;;;;;;;;;;;;;-144.99;100.00;52509.25;5470972;26;19928;-66
2024/04/20 00:04:14;;;;;;;;;;;;;;;-144.99;100.00;52523.50;5476680;26;19947;-65
2024/04/20 00:06:43;;;;;;;;;;;;;;;-144.99;100.00;52521.47;5472286;26;19932;-65
2024/04/20 00:09:12;;;;;;;;;;;;;;;-144.99;100.00;52529.63;5483671;26;19928;-65
2024/04/20 00:11:40;;;;;;;;;;;;;;;-144.99;100.00;52517.41;5482981;26;19932;-65
2024/04/20 00:14:09;;;;;;;;;;;;;;;-144.99;100.00;52472.56;5479150;26;19958;-65
2024/04/20 00:16:40;;;;;;;;;;;;;;;-144.99;100.00;52492.94;5482935;26;19936;-65
2024/04/20 00:19:09;;;;;;;;;;;;;;;-144.99;100.00;52501.09;5481801;26;20004;-65
2024/04/20 00:21:37;;;;;;;;;;;;;;;-144.99;100.00;52511.28;5483438;26;19940;-65
2024/04/20 00:24:06;;;;;;;;;;;;;;;-144.99;99.63;52505.16;5483542;26;19939;-65
2024/04/20 00:26:34;;;;;;;;;;;;;;;-144.99;99.45;52517.41;5483559;26;19928;-65
2024/04/20 00:29:03;;;;;;;;;;;;;;;-144.99;99.64;52509.25;5483829;26;19935;-68
2024/04/20 00:31:32;;;;;;;;;;;;;;;-144.99;99.04;52533.69;5483860;26;20311;-68
2024/04/20 00:34:03;;;;;;;;;;;;;;;-144.99;98.79;52527.59;5483226;26;20055;-68
2024/04/20 00:36:32;;;;;;;;;;;;;;;-144.99;98.32;52497.00;5483401;26;19939;-69
2024/04/20 00:39:00;;;;;;;;;;;;;;;-144.99;98.16;52509.25;5483138;26;19948;-68
2024/04/20 00:41:29;;;;;;;;;;;;;;;-144.99;98.10;52480.72;5482629;26;19935;-69
2024/04/20 00:43:57;;;;;;;;;;;;;;;-144.99;97.41;52521.47;5482700;26;20607;-70
2024/04/20 00:46:27;;;;;;;;;;;;;;;-144.99;97.59;52501.09;5473082;26;19936;-70
2024/04/20 00:48:57;;;;;;;;;;;;;;;-144.99;96.89;52517.41;5483214;26;20054;-70
2024/04/20 00:51:28;;;;;;;;;;;;;;;-144.99;96.99;52505.16;5480293;26;19935;-70
2024/04/20 00:53:58;;;;;;;;;;;;;;;-144.99;96.67;52523.50;5482791;26;19932;-70
2024/04/20 00:56:27;;;;;;;;;;;;;;;-144.99;96.38;52505.16;5482686;26;19928;-60
2024/04/20 00:58:56;;;;;;;;;;;;;;;-144.99;96.26;52505.16;5483045;26;19928;-66
2024/04/20 01:01:26;;;;;;;;;;;;;;;-144.99;96.23;52517.41;5482628;26;19939;-66
2024/04/20 01:03:54;;;;;;;;;;;;;;;-144.99;95.76;52523.50;5482255;26;19928;-66
2024/04/20 01:06:23;;;;;;;;;;;;;;;-144.99;95.70;52452.16;5482281;26;20330;-65
2024/04/20 01:08:55;;;;;;;;;;;;;;;-144.99;95.48;52497.00;5482839;26;19978;-65
2024/04/20 01:11:24;;;;;;;;;;;;;;;-144.99;95.41;52501.09;5482655;26;19932;-66
2024/04/20 01:13:55;;;;;;;;;;;;;;;-144.99;95.63;52492.94;5478863;26;20047;-66
2024/04/20 01:16:24;;;;;;;;;;;;;;;-144.99;95.33;52525.56;5482434;26;19928;-65
2024/04/20 01:18:53;;;;;;;;;;;;;;;-144.99;95.44;52507.19;5483210;26;19928;-68
2024/04/20 01:21:22;;;;;;;;;;;;;;;-144.99;95.06;52505.16;5482418;26;19927;-68
2024/04/20 01:23:51;;;;;;;;;;;;;;;-144.99;95.02;52521.47;5469552;26;20023;-68
2024/04/20 01:26:22;;;;;;;;;;;;;;;-144.99;95.06;52468.47;5481888;26;19947;-68
2024/04/20 01:28:54;;;;;;;;;;;;;;;-144.99;95.34;52517.41;5482674;26;19935;-66
2024/04/20 01:31:22;;;;;;;;;;;;;;;-144.99;95.51;52541.84;5481970;26;19935;-66
2024/04/20 01:33:51;;;;;;;;;;;;;;;-144.99;95.34;52513.31;5482296;26;20227;-66
2024/04/20 01:36:19;;;;;;;;;;;;;;;-144.99;95.60;52513.31;5481833;26;19928;-66
2024/04/20 01:38:48;;;;;;;;;;;;;;;-144.99;95.65;52541.84;5482246;26;19927;-64
2024/04/20 01:41:17;;;;;;;;;;;;;;;-144.99;95.63;52509.25;5482366;26;19928;-65
2024/04/20 01:43:48;;;;;;;;;;;;;;;-144.99;95.65;52570.38;5468226;26;20050;-65
2024/04/20 01:46:16;;;;;;;;;;;;;;;-144.99;95.71;52554.09;5482768;26;19928;-65
2024/04/20 01:48:45;;;;;;;;;;;;;;;-144.99;95.77;52529.63;5484045;26;20354;-65
2024/04/20 01:51:13;;;;;;;;;;;;;;;-144.99;95.69;52494.97;5481372;26;20296;-65
2024/04/20 01:53:42;;;;;;;;;;;;;;;-144.99;95.65;52529.63;5482885;26;20263;-65
2024/04/20 01:56:10;;;;;;;;;;;;;;;-144.99;95.62;52505.16;5482866;26;20214;-64
2024/04/20 01:58:39;;;;;;;;;;;;;;;-144.99;95.74;52488.84;5482946;26;19928;-65
2024/04/20 02:01:10;;;;;;;;;;;;;;;-144.99;95.58;52554.09;5483011;26;20289;-65
2024/04/20 02:03:40;;;;;;;;;;;;;;;-144.99;95.64;52533.69;5482479;26;19936;-64
2024/04/20 02:06:09;;;;;;;;;;;;;;;-144.99;95.68;52517.41;5482967;26;19928;-65
2024/04/20 02:08:37;;;;;;;;;;;;;;;-144.99;95.70;52507.19;5482213;26;19939;-65
2024/04/20 02:11:06;;;;;;;;;;;;;;;-144.99;95.72;52533.69;5481775;26;20054;-62
2024/04/20 02:13:34;;;;;;;;;;;;;;;-144.99;95.86;52566.31;5477163;26;19928;-63
2024/04/20 02:16:03;;;;;;;;;;;;;;;-144.99;95.83;52521.47;5482233;26;19935;-63
2024/04/20 02:18:34;;;;;;;;;;;;;;;-144.99;95.91;52521.47;5482688;26;19935;-63
2024/04/20 02:21:03;;;;;;;;;;;;;;;-144.99;96.25;52533.69;5482288;26;19935;-64
2024/04/20 02:23:32;;;;;;;;;;;;;;;-144.99;96.12;52521.47;5480948;26;20051;-66
2024/04/20 02:26:00;;;;;;;;;;;;;;;-144.99;96.23;52521.47;5481259;26;19928;-66
2024/04/20 02:28:29;;;;;;;;;;;;;;;-144.99;96.16;52554.09;5481400;26;19934;-66
2024/04/20 02:30:57;;;;;;;;;;;;;;;-144.99;96.21;52537.78;5479174;26;19935;-66
2024/04/20 02:33:26;;;;;;;;;;;;;;;-144.99;96.37;52537.78;5480149;26;19928;-64
2024/04/20 02:35:57;;;;;;;;;;;;;;;-144.99;96.29;52511.28;5480961;26;19928;-65
2024/04/20 02:38:26;;;;;;;;;;;;;;;-144.99;96.08;52554.09;5476740;26;19938;-64
2024/04/20 02:40:55;;;;;;;;;;;;;;;-144.99;96.19;52578.53;5480664;26;19932;-65
2024/04/20 02:43:23;;;;;;;;;;;;;;;-144.99;96.38;52550.00;5478869;26;20170;-63
2024/04/20 02:45:52;;;;;;;;;;;;;;;-144.99;96.23;52558.16;5477807;26;19928;-64
2024/04/20 02:48:21;;;;;;;;;;;;;;;-144.99;96.19;52543.91;5475321;26;19928;-63
2024/04/20 02:50:50;;;;;;;;;;;;;;;-144.99;96.03;52545.94;5480835;26;19958;-63
2024/04/20 02:53:21;;;;;;;;;;;;;;;-144.99;96.17;52543.91;5477584;26;20264;-63
2024/04/20 02:55:49;;;;;;;;;;;;;;;-144.99;96.37;52539.81;5480628;26;19939;-62
2024/04/20 02:58:18;;;;;;;;;;;;;;;-144.99;96.23;52558.16;5480240;26;19935;-63
2024/04/20 03:00:56;;;;;;;;;;;;;;;-144.99;96.28;52556.13;5480574;26;19928;-63
2024/04/20 03:03:25;;;;;;;;;;;;;;;-144.99;96.46;52505.16;5480208;26;20000;-66
2024/04/20 03:05:54;;;;;;;;;;;;;;;-144.99;96.55;52541.84;5468320;26;19951;-67
2024/04/20 03:08:25;;;;;;;;;;;;;;;-144.99;96.63;52517.41;5480419;26;19939;-68
2024/04/20 03:10:53;;;;;;;;;;;;;;;-144.99;96.65;52541.84;5481153;26;19946;-65
2024/04/20 03:13:22;;;;;;;;;;;;;;;-144.99;96.76;52488.84;5475847;26;19927;-65
2024/04/20 03:16:00;;;;;;;;;;;;;;;-144.99;96.69;52550.00;5467544;26;19932;-67
2024/04/20 03:18:28;;;;;;;;;;;;;;;-144.99;96.76;52497.00;5480022;26;19935;-67
2024/04/20 03:20:57;;;;;;;;;;;;;;;-144.99;96.41;52517.41;5480158;26;19935;-66
2024/04/20 03:23:28;;;;;;;;;;;;;;;-144.99;96.50;52545.94;5479219;26;20433;-65
2024/04/20 03:25:57;;;;;;;;;;;;;;;-144.99;96.57;52545.94;5480352;26;19928;-65
2024/04/20 03:28:25;;;;;;;;;;;;;;;-144.99;96.32;52507.19;5480001;26;20342;-64
2024/04/20 03:30:54;;;;;;;;;;;;;;;-144.99;96.77;52543.91;5480631;26;20330;-66
2024/04/20 03:33:28;;;;;;;;;;;;;;;-144.99;96.66;52537.78;5479436;26;19935;-66
2024/04/20 03:35:57;;;;;;;;;;;;;;;-144.99;96.60;52521.47;5480147;26;19995;-66
2024/04/20 03:38:28;;;;;;;;;;;;;;;-144.99;96.40;52570.38;5474841;26;19928;-67
2024/04/20 03:40:57;;;;;;;;;;;;;;;-144.99;96.28;52550.00;5479463;26;20415;-67
2024/04/20 03:43:25;;;;;;;;;;;;;;;-144.99;96.32;52521.47;5478848;26;19928;-65
2024/04/20 03:45:54;;;;;;;;;;;;;;;-144.99;96.42;52566.31;5481238;26;19951;-66
2024/04/20 03:48:24;;;;;;;;;;;;;;;-144.99;96.05;52525.56;5482732;26;19968;-66
2024/04/20 03:50:56;;;;;;;;;;;;;;;-144.99;96.17;52543.91;5482508;26;19928;-67
2024/04/20 03:53:25;;;;;;;;;;;;;;;-144.99;96.10;52554.09;5480315;26;20262;-67
2024/04/20 03:55:57;;;;;;;;;;;;;;;-144.99;96.35;52501.09;5488197;26;19935;-68
2024/04/20 03:58:25;;;;;;;;;;;;;;;-144.99;96.31;52541.84;5493560;26;19935;-66
2024/04/20 04:00:54;;;;;;;;;;;;;;;-144.99;96.28;52572.44;5493016;26;19928;-66
2024/04/20 04:03:26;;;;;;;;;;;;;;;-144.99;96.36;52533.69;5492946;26;19935;-65
2024/04/20 04:05:55;;;;;;;;;;;;;;;-144.99;96.29;52562.25;5492566;26;19958;-64
2024/04/20 04:08:23;;;;;;;;;;;;;;;-144.99;96.50;52533.69;5494641;26;19992;-65
2024/04/20 04:10:52;;;;;;;;;;;;;;;-144.99;96.25;52521.47;5494497;26;19928;-65
2024/04/20 04:13:23;;;;;;;;;;;;;;;-144.99;96.30;52541.84;5487376;26;19928;-65
2024/04/20 04:15:52;;;;;;;;;;;;;;;-144.99;96.60;52580.59;5493226;26;20070;-71
2024/04/20 04:18:21;;;;;;;;;;;;;;;-144.99;96.65;52503.13;5495692;26;19932;-73
2024/04/20 04:20:50;;;;;;;;;;;;;;;-144.99;96.59;52537.78;5503970;26;19982;-71
2024/04/20 04:23:18;;;;;;;;;;;;;;;-144.99;96.35;52550.00;5489085;26;19939;-62
2024/04/20 04:25:47;;;;;;;;;;;;;;;-144.99;96.40;52521.47;5482854;26;20377;-62
2024/04/20 04:28:15;;;;;;;;;;;;;;;-144.99;96.56;52545.94;5483308;26;19928;-64
2024/04/20 04:30:47;;;;;;;;;;;;;;;-144.99;96.37;52533.69;5468715;26;19935;-61
2024/04/20 04:33:16;;;;;;;;;;;;;;;-144.99;96.46;52509.25;5483760;26;19928;-68
2024/04/20 04:35:44;;;;;;;;;;;;;;;-144.99;96.85;52501.09;5468994;26;19929;-67
2024/04/20 04:38:13;;;;;;;;;;;;;;;-144.99;97.03;52513.31;5484254;26;20331;-67
2024/04/20 04:40:41;;;;;;;;;;;;;;;-144.99;96.80;52521.47;5482252;26;19936;-66
2024/04/20 04:43:10;;;;;;;;;;;;;;;-144.99;96.83;52566.31;5482694;26;19931;-66
2024/04/20 04:45:38;;;;;;;;;;;;;;;-144.99;96.66;52525.56;5482819;26;20393;-66
2024/04/20 04:48:10;;;;;;;;;;;;;;;-144.99;96.55;52525.56;5474333;26;19927;-67
2024/04/20 04:50:39;;;;;;;;;;;;;;;-144.99;96.85;52570.38;5483115;26;20394;-65
2024/04/20 04:53:08;;;;;;;;;;;;;;;-144.99;96.42;52537.78;5480339;26;19938;-66
2024/04/20 04:55:36;;;;;;;;;;;;;;;-144.99;96.65;52529.63;5483211;26;20343;-65
2024/04/20 04:58:05;;;;;;;;;;;;;;;-144.99;96.27;52547.97;5483246;26;20275;-67
2024/04/20 05:00:33;;;;;;;;;;;;;;;-144.99;96.08;52545.94;5482769;26;19928;-66
2024/04/20 05:03:02;;;;;;;;;;;;;;;-144.99;96.20;52511.28;5482733;26;19928;-68
2024/04/20 05:05:33;;;;;;;;;;;;;;;-144.99;96.19;52533.69;5481084;26;19951;-66
2024/04/20 05:08:02;;;;;;;;;;;;;;;-144.99;96.03;52523.50;5482523;26;19928;-66
2024/04/20 05:10:31;;;;;;;;;;;;;;;-144.99;95.93;52497.00;5481980;26;19939;-66
2024/04/20 05:12:59;;;;;;;;;;;;;;;-144.99;95.86;52521.47;5478030;26;19928;-66
2024/04/20 05:15:28;;;;;;;;;;;;;;;-144.99;95.48;52525.56;5481548;26;19973;-65
2024/04/20 05:17:56;;;;;;;;;;;;;;;-144.99;95.16;52488.84;5482127;26;19943;-66
2024/04/20 05:20:25;;;;;;;;;;;;;;;-144.99;94.72;52533.69;5479135;26;19938;-65
2024/04/20 05:22:56;;;;;;;;;;;;;;;-144.99;94.50;52521.47;5482529;26;20251;-66
2024/04/20 05:25:25;;;;;;;;;;;;;;;-144.99;94.05;52468.47;5482457;26;20822;-66
2024/04/20 05:27:53;;;;;;;;;;;;;;;-144.99;94.19;52513.31;5485303;26;19948;-66
2024/04/20 05:30:22;;;;;;;;;;;;;;;-144.99;93.73;52509.25;5478206;26;19927;-66
2024/04/20 05:32:53;;;;;;;;;;;;;;;-144.99;93.15;52537.78;5482417;26;19928;-69
2024/04/20 05:35:21;;;;;;;;;;;;;;;-144.99;93.14;52521.47;5482567;26;20125;-69
2024/04/20 05:37:50;;;;;;;;;;;;;;;-144.99;92.96;52505.16;5482504;26;19930;-68
2024/04/20 05:40:21;;;;;;;;;;;;;;;-144.99;92.88;52505.16;5483784;26;20084;-71
2024/04/20 05:42:51;;;;;;;;;;;;;;;-144.99;92.97;52554.09;5482392;26;19928;-71
2024/04/20 05:45:23;;;;;;;;;;;;;;;-144.99;93.24;52505.16;5482355;26;19932;-71
2024/04/20 05:47:51;;;;;;;;;;;;;;;-144.99;93.23;52488.84;5473479;26;19939;-71
2024/04/20 05:50:20;;;;;;;;;;;;;;;-144.99;93.06;52488.84;5482434;26;19936;-70
2024/04/20 05:52:48;;;;;;;;;;;;;;;-144.99;92.80;52476.63;5479618;26;20413;-71
2024/04/20 05:55:17;;;;;;;;;;;;;;;-144.99;92.19;52435.88;5482354;26;19927;-72
2024/04/20 05:57:49;;;;;;;;;;;;;;;-144.99;91.53;52509.25;5468232;26;20333;-71
2024/04/20 06:00:18;;;;;;;;;;;;;;;-144.99;91.50;52507.19;5482616;26;20004;-68
2024/04/20 06:02:47;;;;;;;;;;;;;;;-144.99;91.44;52501.09;5468051;26;19939;-70
2024/04/20 06:05:15;;;;;;;;;;;;;;;-144.99;91.09;52533.69;5470217;26;20355;-68
2024/04/20 06:07:44;;;;;;;;;;;;;;;-144.99;90.88;52501.09;5461116;26;19936;-68
2024/04/20 06:10:13;;;;;;;;;;;;;;;-144.99;89.76;52517.41;5474142;26;20164;-73
2024/04/20 06:12:41;;;;;;;;;;;;;;;-144.99;89.52;52497.00;5473311;26;19952;-70
2024/04/20 06:15:12;;;;;;;;;;;;;;;-144.99;88.87;52497.00;5481365;26;19944;-70
2024/04/20 06:17:41;;;;;;;;;;;;;;;-144.99;87.81;52458.28;5482406;26;20089;-69
2024/04/20 06:20:10;;;;;;;;;;;;;;;-144.99;87.74;52484.78;5481815;26;19928;-69
2024/04/20 06:22:38;;;;;;;;;;;;;;;-144.99;87.63;52497.00;5481263;26;19935;-68
2024/04/20 06:25:08;;;;;;;;;;;;;;;-144.99;87.53;52529.63;5481087;26;20043;-61
2024/04/20 06:27:37;;;;;;;;;;;;;;;-144.99;87.22;52511.28;5466889;26;19928;-62
2024/04/20 06:30:06;;;;;;;;;;;;;;;-144.99;88.11;52492.94;5481891;26;19928;-61
2024/04/20 06:32:37;;;;;;;;;;;;;;;-144.99;87.58;52488.84;5481335;26;20161;-62
2024/04/20 06:35:06;;;;;;;;;;;;;;;-144.99;87.84;52501.09;5479958;26;19928;-61
2024/04/20 06:37:34;;;;;;;;;;;;;;;-144.99;87.95;52488.84;5481498;26;19928;-61
2024/04/20 06:40:03;;;;;;;;;;;;;;;-144.99;88.30;52517.41;5469997;26;19928;-61
2024/04/20 06:42:32;;;;;;;;;;;;;;;-144.99;88.16;52490.91;5481557;26;19927;-61
2024/04/20 06:45:01;;;;;;;;;;;;;;;-144.99;88.18;52521.47;5481393;26;19928;-61
2024/04/20 06:47:29;;;;;;;;;;;;;;;-144.99;88.00;52497.00;5472384;26;20054;-62
2024/04/20 06:49:58;;;;;;;;;;;;;;;-144.99;88.31;52509.25;5481802;26;19928;-62
2024/04/20 06:52:26;;;;;;;;;;;;;;;-144.99;88.37;52505.16;5480966;26;19935;-66
2024/04/20 06:54:55;;;;;;;;;;;;;;;-144.99;87.84;52476.63;5480731;26;19969;-66
2024/04/20 06:57:24;;;;;;;;;;;;;;;-144.99;87.35;52509.25;5481033;26;19928;-64
2024/04/20 06:59:52;;;;;;;;;;;;;;;-144.99;87.26;52468.47;5480939;26;19928;-66
2024/04/20 07:02:21;;;;;;;;;;;;;;;-144.99;88.81;52501.09;5481246;26;19928;-67
2024/04/20 07:04:51;;;;;;;;;;;;;;;-144.99;87.81;52468.47;5481337;26;19958;-67
2024/04/20 07:07:23;;;;;;;;;;;;;;;-144.99;88.12;52464.41;5481676;26;19935;-66
2024/04/20 07:09:51;;;;;;;;;;;;;;;-144.99;89.04;52470.50;5481557;26;19999;-66
2024/04/20 07:12:20;;;;;;;;;;;;;;;-144.99;89.30;52460.31;5476543;26;19931;-67
2024/04/20 07:14:49;;;;;;;;;;;;;;;-144.99;88.46;52492.94;5480471;26;19928;-67
2024/04/20 07:17:17;;;;;;;;;;;;;;;-144.99;88.61;52460.31;5481495;26;20327;-67
2024/04/20 07:19:46;;;;;;;;;;;;;;;-144.99;87.76;52439.94;5469823;26;19935;-66
2024/04/20 07:22:14;;;;;;;;;;;;;;;-144.99;85.88;52441.97;5473842;26;19936;-67
2024/04/20 07:24:45;;;;;;;;;;;;;;;-144.99;86.65;52484.78;5482646;26;19935;-66
2024/04/20 07:27:14;;;;;;;;;;;;;;;-144.99;86.81;52437.91;5483235;26;19927;-67
2024/04/20 07:29:43;;;;;;;;;;;;;;;-144.99;86.83;52431.78;5483071;26;19928;-68
2024/04/20 07:32:11;;;;;;;;;;;;;;;-144.99;85.05;52435.88;5484514;26;19927;-68
2024/04/20 07:34:40;;;;;;;;;;;;;;;-144.99;83.14;52411.41;5484013;26;19928;-67
2024/04/20 07:37:08;;;;;;;;;;;;;;;-144.99;79.74;52439.94;5484581;26;19935;-66
2024/04/20 07:39:37;;;;;;;;;;;;;;;-144.99;77.92;52431.78;5483733;26;20386;-67
2024/04/20 07:42:08;;;;;;;;;;;;;;;-144.99;76.44;52444.03;5484414;26;19928;-67
2024/04/20 07:44:36;;;;;;;;;;;;;;;-144.99;76.85;52444.03;5483256;26;19984;-65
2024/04/20 07:47:05;;;;;;;;;;;;;;;-144.99;75.65;52397.13;5474915;26;19932;-67
2024/04/20 07:49:33;;;;;;;;;;;;;;;-144.99;75.76;52452.16;5475736;26;20282;-66
2024/04/20 07:52:02;;;;;;;;;;;;;;;-144.99;76.40;52468.47;5480836;26;20000;-67
2024/04/20 07:54:30;;;;;;;;;;;;;;;-144.99;76.06;52439.94;5481123;26;19928;-67
2024/04/20 07:56:59;;;;;;;;;;;;;;;-144.99;76.57;52448.09;5484120;26;19927;-68
2024/04/20 07:59:30;;;;;;;;;;;;;;;-144.99;76.05;52460.31;5483097;26;19928;-67
2024/04/20 08:01:59;;;;;;;;;;;;;;;-144.99;75.62;52435.88;5467306;26;19935;-67
2024/04/20 08:04:28;;;;;;;;;;;;;;;-144.99;75.93;52450.13;5468229;26;19928;-67
2024/04/20 08:06:57;;;;;;;;;;;;;;;-144.99;75.32;52435.88;5484922;26;19943;-69
2024/04/20 08:09:25;;;;;;;;;;;;;;;-144.99;75.22;52452.16;5484310;26;19928;-69
2024/04/20 08:11:54;;;;;;;;;;;;;;;-144.99;74.97;52472.56;5483643;26;20274;-69
2024/04/20 08:14:22;;;;;;;;;;;;;;;-144.99;75.76;52464.41;5478777;26;19928;-69
2024/04/20 08:16:54;;;;;;;;;;;;;;;-144.99;76.61;52468.47;5470568;26;19929;-68
2024/04/20 08:19:22;;;;;;;;;;;;;;;-144.99;77.10;52505.16;5484047;26;20092;-67
2024/04/20 08:21:51;;;;;;;;;;;;;;;-144.99;76.53;52484.78;5483882;26;19939;-67
2024/04/20 08:24:19;;;;;;;;;;;;;;;-144.99;75.79;52427.72;5483315;26;19966;-67
2024/04/20 08:26:48;;;;;;;;;;;;;;;-144.99;75.95;52448.09;5479006;26;20000;-67
2024/04/20 08:29:16;;;;;;;;;;;;;;;-144.99;75.41;52492.94;5482244;26;19928;-68
2024/04/20 08:31:42;;;;;;;;;;;;;;;-144.99;75.43;52468.47;5458241;26;19928;-67
2024/04/20 08:34:13;;;;;;;;;;;;;;;-144.99;75.36;52444.03;4697140;26;10000564;-67
2024/04/20 08:36:42;;;;;;;;;;;;;;;-144.99;75.69;52427.72;5480202;26;19931;-68
2024/04/20 08:39:10;;;;;;;;;;;;;;;-144.99;74.85;52435.88;5480225;26;19928;-67
2024/04/20 08:41:44;;;;;;;;;;;;;;;-144.99;72.88;52419.56;5468888;26;19940;-67
2024/04/20 08:44:12;;;;;;;;;;;;;;;-144.99;72.63;52464.41;5473548;26;20303;-68
2024/04/20 08:46:42;;;;;;;;;;;;;;;-144.99;73.37;52456.25;5469539;26;19931;-68
2024/04/20 08:49:14;;;;;;;;;;;;;;;-144.99;73.79;52480.72;5446472;26;19943;-68
2024/04/20 08:51:46;;;;;;;;;;;;;;;-144.99;72.82;52454.22;5474829;26;20003;-67
2024/04/20 08:54:15;;;;;;;;;;;;;;;-144.99;72.40;52480.72;5470474;26;19999;-68
2024/04/20 08:56:43;;;;;;;;;;;;;;;-144.99;72.61;52472.56;5478635;26;20370;-67
2024/04/20 08:59:12;;;;;;;;;;;;;;;-144.99;72.37;52501.09;5479328;26;19927;-67
2024/04/20 09:01:41;;;;;;;;;;;;;;;-144.99;72.06;52464.41;5463458;26;19928;-68
2024/04/20 09:04:10;;;;;;;;;;;;;;;-144.99;72.31;52433.81;5471230;26;19932;-68
2024/04/20 09:06:42;;;;;;;;;;;;;;;-144.99;71.44;52456.25;5479806;26;21199;-67
2024/04/20 09:09:12;;;;;;;;;;;;;;;-144.99;70.79;52419.56;5479488;26;19928;-68
2024/04/20 09:11:41;;;;;;;;;;;;;;;-144.99;70.17;52427.72;5464773;26;19928;-68
2024/04/20 09:14:09;;;;;;;;;;;;;;;-144.99;70.00;52419.56;5469247;26;19932;-67
2024/04/20 09:16:38;;;;;;;;;;;;;;;-144.99;69.04;52439.94;5478759;26;20385;-68
2024/04/20 09:19:07;;;;;;;;;;;;;;;-144.99;68.05;52456.25;5480134;26;19939;-68
2024/04/20 09:21:35;;;;;;;;;;;;;;;-144.99;67.84;52492.94;5480248;26;19935;-68
2024/04/20 09:24:10;;;;;;;;;;;;;;;-144.99;67.86;52423.63;5456515;26;20254;-68
2024/04/20 09:26:39;;;;;;;;;;;;;;;-144.99;67.88;52427.72;5471824;26;19936;-68
2024/04/20 09:29:08;;;;;;;;;;;;;;;-144.99;68.50;52407.31;5470587;26;19928;-68
2024/04/20 09:31:36;;;;;;;;;;;;;;;-144.99;68.34;52433.81;5479007;26;20140;-68
2024/04/20 09:34:05;;;;;;;;;;;;;;;-144.99;67.97;52435.88;5454847;26;19929;-69
2024/04/20 09:36:33;;;;;;;;;;;;;;;-144.99;67.37;52460.31;5476548;26;19962;-68
2024/04/20 09:39:05;;;;;;;;;;;;;;;-144.99;66.96;52423.63;5479267;26;19935;-68
2024/04/20 09:41:36;;;;;;;;;;;;;;;-144.99;66.32;52395.09;5478965;26;20259;-68
2024/04/20 09:44:05;;;;;;;;;;;;;;;-144.99;66.28;52427.72;5468050;26;19932;-67
2024/04/20 09:46:34;;;;;;;;;;;;;;;-144.99;65.99;52386.94;5462092;26;20001;-67
2024/04/20 09:49:06;;;;;;;;;;;;;;;-144.99;65.51;52366.56;5479971;26;20055;-67
2024/04/20 09:51:39;;;;;;;;;;;;;;;-144.99;64.04;52415.47;5475942;26;19929;-68
2024/04/20 09:54:12;;;;;;;;;;;;;;;-144.99;63.69;52395.09;5469301;26;20307;-67
2024/04/20 09:56:45;;;;;;;;;;;;;;;-144.99;63.48;52403.25;5473131;26;20004;-68
2024/04/20 09:59:14;;;;;;;;;;;;;;;-144.99;62.15;52448.09;5478958;26;19947;-67
2024/04/20 10:01:43;;;;;;;;;;;;;;;-144.99;61.86;52419.56;5478360;26;19939;-67
2024/04/20 10:04:12;;;;;;;;;;;;;;;-144.99;62.06;52433.81;5468705;26;19938;-67
2024/04/20 10:06:41;;;;;;;;;;;;;;;-144.99;62.36;52378.78;5460436;26;19928;-67
2024/04/20 10:09:10;;;;;;;;;;;;;;;-144.99;62.28;52393.06;5483988;26;20014;-68
2024/04/20 10:11:40;;;;;;;;;;;;;;;-144.99;62.33;52386.94;5483164;26;20631;-68
2024/04/20 10:14:11;;;;;;;;;;;;;;;-144.99;62.73;52364.53;5478600;26;19928;-68
2024/04/20 10:16:40;;;;;;;;;;;;;;;-144.99;61.37;52374.72;5464083;26;19999;-68
2024/04/20 10:19:08;;;;;;;;;;;;;;;-144.99;60.10;52354.34;5474291;26;19934;-67
2024/04/20 10:21:39;;;;;;;;;;;;;;;-144.99;59.18;52354.34;5483485;26;19927;-68
2024/04/20 10:24:08;;;;;;;;;;;;;;;-144.99;58.59;52382.88;5483782;26;19971;-68
2024/04/20 10:26:36;;;;;;;;;;;;;;;-144.99;57.15;52415.47;5479795;26;19943;-68
2024/04/20 10:29:11;;;;;;;;;;;;;;;-144.99;57.20;52317.66;5467734;26;20022;-68
2024/04/20 10:31:40;;;;;;;;;;;;;;;-144.99;55.40;52289.13;5483041;26;19935;-68
2024/04/20 10:34:09;;;;;;;;;;;;;;;-144.99;54.20;52305.41;5482893;26;19928;-68
2024/04/20 10:36:38;;;;;;;;;;;;;;;-144.99;54.23;52362.50;5482625;26;20000;-70
2024/04/20 10:39:07;;;;;;;;;;;;;;;-144.99;53.42;52260.56;5457777;26;20366;-69
2024/04/20 10:41:37;;;;;;;;;;;;;;;-144.99;53.28;52256.50;5482647;26;19934;-68
2024/04/20 10:44:16;;;;;;;;;;;;;;;-144.99;51.74;52234.09;5482532;26;19928;-69
2024/04/20 10:46:53;;;;;;;;;;;;;;;-144.99;50.25;52232.03;5467669;26;19928;-68
2024/04/20 10:49:24;;;;;;;;;;;;;;;-144.99;49.45;52191.28;5457679;26;19928;-69
2024/04/20 10:51:53;;;;;;;;;;;;;;;-144.99;48.49;52203.50;5466602;26;19928;-69
2024/04/20 10:54:22;;;;;;;;;;;;;;;-144.99;47.28;52223.88;5481932;26;20120;-70
2024/04/20 10:56:52;;;;;;;;;;;;;;;-144.99;47.76;52240.19;5482945;26;19928;-69
2024/04/20 10:59:23;;;;;;;;;;;;;;;-144.99;47.66;52285.03;5468152;26;20381;-69
2024/04/20 11:01:52;;;;;;;;;;;;;;;-144.99;46.93;52209.63;5470521;26;19928;-69
2024/04/20 11:04:21;;;;;;;;;;;;;;;-144.99;46.97;52268.72;5480851;26;20485;-69
2024/04/20 11:06:54;;;;;;;;;;;;;;;-144.99;48.45;52354.34;5481908;26;19928;-68
2024/04/20 11:09:23;;;;;;;;;;;;;;;-144.99;48.91;52382.88;5479841;26;19935;-68
2024/04/20 11:12:00;;;;;;;;;;;;;;;-144.99;49.78;52384.91;5457548;26;19931;-69
2024/04/20 11:14:32;;;;;;;;;;;;;;;-144.99;50.88;52411.41;5477585;26;20306;-69
2024/04/20 11:17:01;;;;;;;;;;;;;;;-144.99;54.48;52472.56;5482993;26;19973;-69
2024/04/20 11:19:30;;;;;;;;;;;;;;;-144.99;56.11;52462.34;5483017;26;20448;-68
2024/04/20 11:21:59;;;;;;;;;;;;;;;-144.99;58.28;52517.41;5456887;26;19935;-69
2024/04/20 11:24:28;;;;;;;;;;;;;;;-144.99;59.75;52492.94;5477150;26;20345;-68
2024/04/20 11:27:02;;;;;;;;;;;;;;;-144.99;60.26;52503.13;5481565;26;19932;-69
2024/04/20 11:29:34;;;;;;;;;;;;;;;-144.99;60.23;52505.16;5481197;26;19928;-68
2024/04/20 11:32:03;;;;;;;;;;;;;;;-144.99;61.43;52533.69;5464468;26;20057;-69
2024/04/20 11:34:32;;;;;;;;;;;;;;;-144.99;61.90;52541.84;5477321;26;19928;-68
2024/04/20 11:37:00;;;;;;;;;;;;;;;-144.99;62.73;52525.56;5481729;26;19928;-68
2024/04/20 11:39:29;;;;;;;;;;;;;;;-144.99;62.74;52537.78;5481871;26;19928;-68
2024/04/20 11:42:04;;;;;;;;;;;;;;;-144.99;63.12;52505.16;5473950;26;19936;-68
2024/04/20 11:44:38;;;;;;;;;;;;;;;-144.99;63.48;52513.31;5468335;26;19935;-68
2024/04/20 11:47:16;;;;;;;;;;;;;;;-144.99;63.35;52525.56;5481487;26;20254;-68
2024/04/20 11:49:50;;;;;;;;;;;;;;;-144.99;63.26;52543.91;5466731;26;19928;-68
2024/04/20 11:55:09;;;;;;;;;;;;;;;-144.99;63.57;52513.31;5465720;26;19997;-68
2024/04/20 11:57:37;;;;;;;;;;;;;;;-144.99;64.37;52513.31;5481452;26;19928;-68
2024/04/20 12:00:12;;;;;;;;;;;;;;;-144.99;64.28;52513.31;5481623;26;20063;-68
2024/04/20 12:02:40;;;;;;;;;;;;;;;-144.99;64.69;52472.56;5480654;26;19927;-68
2024/04/20 12:05:09;;;;;;;;;;;;;;;-144.99;64.97;52525.56;5457068;26;19928;-68
2024/04/20 12:07:38;;;;;;;;;;;;;;;-144.99;65.16;52468.47;5482164;26;19928;-68
2024/04/20 12:10:09;;;;;;;;;;;;;;;-144.99;65.55;52529.63;5481167;26;20042;-68
2024/04/20 12:12:37;;;;;;;;;;;;;;;-144.99;65.41;52550.00;5476589;26;20374;-68
2024/04/20 12:15:09;;;;;;;;;;;;;;;-144.99;65.96;52545.94;5465789;26;19928;-69
2024/04/20 12:17:38;;;;;;;;;;;;;;;-144.99;66.56;52515.34;5469546;26;20032;-69
2024/04/20 12:20:07;;;;;;;;;;;;;;;-144.99;66.82;52525.56;5485209;26;19935;-69
2024/04/20 12:22:35;;;;;;;;;;;;;;;-144.99;66.95;52550.00;5484826;26;20153;-69
2024/04/20 12:25:04;;;;;;;;;;;;;;;-144.99;67.34;52501.09;5476505;26;19936;-70
2024/04/20 12:27:32;;;;;;;;;;;;;;;-144.99;67.08;52486.81;4714274;26;10000773;-69
2024/04/20 12:30:03;;;;;;;;;;;;;;;-144.99;66.66;52488.84;5481064;26;19936;-69
2024/04/20 12:32:34;;;;;;;;;;;;;;;-144.99;65.88;52501.09;5481332;26;20039;-68
2024/04/20 12:35:02;;;;;;;;;;;;;;;-144.99;64.86;52403.25;5480476;26;19943;-69
2024/04/20 12:37:31;;;;;;;;;;;;;;;-144.99;63.39;52346.19;5464805;26;20445;-69
2024/04/20 12:39:59;;;;;;;;;;;;;;;-144.99;62.10;52356.38;5481013;26;19983;-68